createdAt,value
2022-08-04T00:02:24.128Z,91.94
2022-08-04T00:05:05.368Z,92.22
2022-08-04T00:07:52.592Z,92.11
2022-08-04T00:10:22.488Z,92.18
2022-08-04T00:12:52.050Z,92.39
2022-08-04T00:15:20.029Z,92.17
2022-08-04T00:17:54.076Z,92.16
2022-08-04T00:20:22.032Z,92.54
2022-08-04T00:22:52.199Z,92.34
2022-08-04T00:25:19.614Z,92.13
2022-08-04T00:27:47.045Z,92.20
2022-08-04T00:30:13.767Z,92.26
2022-08-04T00:32:43.813Z,92.46
2022-08-04T00:35:14.113Z,92.68
2022-08-04T00:37:44.869Z,92.83
2022-08-04T00:40:41.079Z,93.08
2022-08-04T00:43:43.233Z,93.07
2022-08-04T00:46:24.809Z,93.12
2022-08-04T00:49:28.840Z,93.11
2022-08-04T00:52:32.363Z,93.05
2022-08-04T00:55:12.860Z,93.08
2022-08-04T00:58:18.865Z,93.28
2022-08-04T01:00:53.484Z,93.33
2022-08-04T01:03:29.774Z,93.34
2022-08-04T01:06:16.818Z,93.16
2022-08-04T01:08:50.331Z,93.17
2022-08-04T01:11:23.266Z,92.87
2022-08-04T01:14:06.348Z,92.86
2022-08-04T01:16:39.827Z,92.87
2022-08-04T01:19:27.814Z,92.71
2022-08-04T01:22:04.261Z,92.57
2022-08-04T01:24:43.328Z,92.51
2022-08-04T01:27:26.237Z,92.58
2022-08-04T01:29:58.350Z,92.44
2022-08-04T01:32:53.455Z,92.43
2022-08-04T01:35:47.565Z,92.24
2022-08-04T01:38:34.453Z,92.15
2022-08-04T01:41:13.229Z,92.08
2022-08-04T01:43:45.456Z,92.37
2022-08-04T01:46:17.394Z,92.16
2022-08-04T01:48:47.770Z,92.36
2022-08-04T01:51:14.917Z,92.47
2022-08-04T01:53:43.785Z,92.65
2022-08-04T01:56:11.957Z,92.84
2022-08-04T01:58:40.430Z,92.92
2022-08-04T02:01:12.605Z,93.10
2022-08-04T02:04:19.752Z,93.37
2022-08-04T02:06:32.996Z,92.97
2022-08-04T02:09:32.314Z,93.23
2022-08-04T02:12:43.888Z,93.64
2022-08-04T02:15:16.555Z,93.59
2022-08-04T02:18:00.576Z,93.57
2022-08-04T02:20:43.480Z,93.87
2022-08-04T02:23:15.379Z,93.92
2022-08-04T02:26:06.943Z,93.97
2022-08-04T02:28:45.322Z,94.38
2022-08-04T02:31:32.487Z,94.21
2022-08-04T02:34:24.210Z,94.42
2022-08-04T02:36:52.411Z,94.63
2022-08-04T02:39:21.022Z,94.50
2022-08-04T02:41:49.525Z,94.46
2022-08-04T02:44:28.259Z,94.45
2022-08-04T02:46:55.441Z,94.75
2022-08-04T02:49:23.322Z,94.32
2022-08-04T02:51:55.211Z,94.57
2022-08-04T02:54:33.918Z,94.57
2022-08-04T02:57:02.503Z,94.51
2022-08-04T02:59:42.526Z,94.71
2022-08-04T03:02:09.240Z,94.87
2022-08-04T03:04:51.095Z,94.38
2022-08-04T03:07:39.117Z,94.52
2022-08-04T03:10:38.504Z,94.15
2022-08-04T03:13:06.051Z,94.03
2022-08-04T03:15:42.365Z,93.86
2022-08-04T03:18:33.816Z,93.92
2022-08-04T03:21:26.352Z,93.60
2022-08-04T03:24:19.599Z,93.83
2022-08-04T03:27:07.659Z,93.91
2022-08-04T03:29:55.366Z,93.86
2022-08-04T03:32:37.575Z,93.87
2022-08-04T03:35:13.621Z,93.92
2022-08-04T03:38:13.804Z,93.75
2022-08-04T03:41:02.077Z,93.85
2022-08-04T03:43:57.516Z,93.81
2022-08-04T03:46:29.045Z,93.95
2022-08-04T03:49:40.634Z,93.97
2022-08-04T03:52:32.051Z,93.77
2022-08-04T03:55:17.564Z,93.67
2022-08-04T03:58:21.882Z,93.58
2022-08-04T04:01:03.417Z,93.59
2022-08-04T04:03:49.419Z,93.34
2022-08-04T04:06:57.611Z,92.76
2022-08-04T04:09:56.717Z,92.60
2022-08-04T04:12:35.673Z,92.40
2022-08-04T04:15:24.049Z,92.38
2022-08-04T04:18:17.130Z,92.24
2022-08-04T04:21:08.145Z,91.83
2022-08-04T04:23:52.455Z,91.38
2022-08-04T04:26:59.306Z,91.38
2022-08-04T04:29:40.799Z,91.51
2022-08-04T04:32:24.365Z,91.49
2022-08-04T04:35:18.843Z,91.64
2022-08-04T04:38:20.349Z,91.71
2022-08-04T04:41:08.812Z,91.84
2022-08-04T04:44:00.585Z,91.49
2022-08-04T04:46:33.696Z,91.71
2022-08-04T04:49:25.153Z,91.63
2022-08-04T04:52:18.023Z,91.59
2022-08-04T04:54:56.015Z,91.72
2022-08-04T04:57:54.481Z,91.62
2022-08-04T05:00:13.670Z,91.70
2022-08-04T05:03:01.696Z,91.55
2022-08-04T05:05:45.399Z,91.64
2022-08-04T05:08:43.028Z,91.69
2022-08-04T05:11:27.715Z,91.78
2022-08-04T05:14:38.768Z,91.81
2022-08-04T05:16:51.272Z,91.42
2022-08-04T05:19:37.994Z,91.18
2022-08-04T05:22:14.219Z,91.10
2022-08-04T05:24:44.608Z,91.24
2022-08-04T05:27:20.585Z,90.94
2022-08-04T05:29:53.263Z,90.79
2022-08-04T05:32:24.736Z,90.63
2022-08-04T05:35:05.896Z,90.77
2022-08-04T05:37:34.929Z,90.41
2022-08-04T05:40:07.139Z,90.21
2022-08-04T05:42:38.298Z,90.27
2022-08-04T05:45:06.928Z,90.46
2022-08-04T05:47:35.159Z,90.34
2022-08-04T05:50:06.663Z,90.32
2022-08-04T05:52:34.661Z,89.97
2022-08-04T05:55:02.694Z,89.72
2022-08-04T05:57:30.431Z,89.21
2022-08-04T06:00:00.186Z,88.98
2022-08-04T06:02:28.406Z,88.39
2022-08-04T06:04:57.879Z,88.42
2022-08-04T06:07:26.561Z,88.55
2022-08-04T06:09:53.839Z,87.68
2022-08-04T06:12:31.086Z,87.21
2022-08-04T06:15:00.200Z,86.79
2022-08-04T06:18:33.752Z,86.29
2022-08-04T06:20:22.963Z,85.99
2022-08-04T06:22:55.478Z,86.22
2022-08-04T06:25:33.200Z,86.14
2022-08-04T06:28:02.337Z,86.10
2022-08-04T06:30:32.400Z,85.77
2022-08-04T06:33:04.965Z,85.72
2022-08-04T06:35:33.931Z,86.05
2022-08-04T06:38:02.171Z,85.75
2022-08-04T06:40:33.379Z,85.89
2022-08-04T06:43:03.561Z,85.42
2022-08-04T06:45:31.858Z,85.63
2022-08-04T06:48:00.887Z,85.44
2022-08-04T06:51:28.656Z,85.04
2022-08-04T06:53:15.965Z,84.77
2022-08-04T06:55:45.130Z,84.47
2022-08-04T06:58:12.857Z,84.09
2022-08-04T07:00:41.712Z,83.80
2022-08-04T07:03:09.505Z,83.22
2022-08-04T07:05:36.721Z,83.09
2022-08-04T07:08:04.693Z,82.92
2022-08-04T07:10:31.842Z,82.62
2022-08-04T07:13:01.808Z,82.20
2022-08-04T07:15:29.026Z,82.10
2022-08-04T07:18:01.863Z,82.01
2022-08-04T07:20:30.353Z,81.99
2022-08-04T07:23:07.388Z,82.13
2022-08-04T07:26:11.148Z,81.91
2022-08-04T07:28:26.829Z,81.48
2022-08-04T07:30:55.720Z,81.10
2022-08-04T07:33:23.974Z,80.47
2022-08-04T07:36:08.382Z,79.58
2022-08-04T07:38:48.235Z,79.67
2022-08-04T07:41:40.687Z,79.04
2022-08-04T07:44:08.843Z,78.73
2022-08-04T07:46:36.790Z,79.08
2022-08-04T07:49:04.592Z,79.00
2022-08-04T07:51:32.902Z,78.71
2022-08-04T07:54:00.441Z,78.21
2022-08-04T07:56:28.624Z,78.17
2022-08-04T07:58:56.055Z,78.09
2022-08-04T08:01:26.937Z,77.24
2022-08-04T08:03:56.987Z,77.08
2022-08-04T08:06:32.648Z,76.25
2022-08-04T08:09:12.952Z,76.12
2022-08-04T08:12:38.226Z,76.42
2022-08-04T08:14:35.516Z,76.45
2022-08-04T08:17:03.295Z,76.33
2022-08-04T08:19:34.749Z,76.00
2022-08-04T08:22:02.679Z,76.69
2022-08-04T08:24:30.558Z,75.61
2022-08-04T08:26:57.919Z,75.29
2022-08-04T08:29:26.421Z,74.08
2022-08-04T08:31:56.394Z,73.63
2022-08-04T08:34:28.197Z,73.37
2022-08-04T08:37:17.868Z,73.71
2022-08-04T08:40:03.256Z,73.24
2022-08-04T08:42:47.787Z,72.51
2022-08-04T08:45:17.915Z,72.84
2022-08-04T08:48:12.147Z,72.42
2022-08-04T08:50:48.273Z,73.10
2022-08-04T08:53:32.185Z,73.26
2022-08-04T08:56:13.854Z,73.69
2022-08-04T08:58:49.940Z,73.08
2022-08-04T09:01:44.352Z,73.09
2022-08-04T09:04:46.734Z,73.08
2022-08-04T09:07:35.152Z,73.53
2022-08-04T09:10:19.130Z,73.88
2022-08-04T09:13:08.670Z,73.35
2022-08-04T09:15:54.316Z,73.38
2022-08-04T09:18:24.355Z,72.65
2022-08-04T09:21:06.442Z,72.47
2022-08-04T09:24:03.563Z,72.40
2022-08-04T09:27:01.269Z,72.25
2022-08-04T09:29:43.148Z,71.89
2022-08-04T09:32:29.218Z,71.13
2022-08-04T09:35:33.380Z,71.87
2022-08-04T09:38:22.113Z,71.55
2022-08-04T09:40:58.945Z,71.55
2022-08-04T09:43:59.122Z,70.42
2022-08-04T09:46:51.311Z,70.90
2022-08-04T09:49:23.309Z,70.33
2022-08-04T09:51:57.858Z,69.88
2022-08-04T09:54:33.568Z,69.88
2022-08-04T09:57:22.525Z,69.19
2022-08-04T10:00:06.118Z,69.92
2022-08-04T10:02:42.696Z,69.43
2022-08-04T10:05:21.597Z,68.13
2022-08-04T10:08:15.416Z,67.90
2022-08-04T10:11:21.430Z,68.16
2022-08-04T10:14:05.710Z,67.84
2022-08-04T10:16:53.946Z,67.09
2022-08-04T10:19:28.836Z,67.52
2022-08-04T10:22:29.362Z,68.52
2022-08-04T10:25:04.937Z,67.58
2022-08-04T10:28:00.257Z,68.17
2022-08-04T10:30:35.665Z,67.61
2022-08-04T10:33:21.460Z,67.55
2022-08-04T10:35:53.977Z,68.12
2022-08-04T10:38:42.763Z,68.28
2022-08-04T10:41:30.341Z,68.68
2022-08-04T10:44:16.265Z,68.75
2022-08-04T10:46:56.188Z,68.58
2022-08-04T10:49:38.095Z,68.42
2022-08-04T10:52:11.335Z,67.51
2022-08-04T10:54:55.826Z,68.52
2022-08-04T10:57:40.681Z,67.17
2022-08-04T11:00:19.901Z,67.29
2022-08-04T11:02:55.872Z,66.83
2022-08-04T11:05:44.140Z,66.84
2022-08-04T11:08:31.874Z,66.83
2022-08-04T11:11:02.797Z,67.46
2022-08-04T11:13:34.328Z,66.83
2022-08-04T11:16:05.831Z,67.13
2022-08-04T11:19:01.324Z,67.43
2022-08-04T11:21:34.067Z,67.60
2022-08-04T11:24:26.292Z,67.72
2022-08-04T11:27:00.042Z,67.99
2022-08-04T11:29:32.484Z,67.09
2022-08-04T11:32:02.659Z,67.77
2022-08-04T11:34:30.813Z,70.24
2022-08-04T11:37:03.477Z,71.81
2022-08-04T11:39:43.746Z,72.16
2022-08-04T11:42:18.758Z,72.43
2022-08-04T11:44:52.520Z,73.54
2022-08-04T11:47:27.286Z,75.45
2022-08-04T11:50:30.196Z,76.39
2022-08-04T11:52:58.261Z,75.62
2022-08-04T11:55:28.096Z,78.82
2022-08-04T11:57:55.326Z,78.19
2022-08-04T12:00:24.737Z,77.32
2022-08-04T12:03:09.766Z,77.42
2022-08-04T12:05:47.004Z,77.56
2022-08-04T12:08:28.841Z,76.13
2022-08-04T12:11:21.551Z,75.83
2022-08-04T12:14:19.489Z,76.28
2022-08-04T12:16:58.215Z,76.88
2022-08-04T12:19:52.160Z,78.32
2022-08-04T12:22:25.109Z,79.41
2022-08-04T12:25:03.940Z,79.88
2022-08-04T12:27:35.200Z,82.33
2022-08-04T12:31:02.074Z,84.09
2022-08-04T12:33:10.783Z,80.97
2022-08-04T12:36:10.060Z,85.06
2022-08-04T12:38:47.225Z,86.49
2022-08-04T12:41:19.261Z,86.38
2022-08-04T12:43:47.342Z,85.76
2022-08-04T12:46:24.671Z,85.66
2022-08-04T12:48:52.146Z,85.95
2022-08-04T12:52:06.504Z,86.00
2022-08-04T12:54:10.171Z,86.45
2022-08-04T12:56:38.683Z,85.10
2022-08-04T12:59:13.035Z,85.88
2022-08-04T13:02:07.187Z,86.05
2022-08-04T13:04:34.660Z,85.67
2022-08-04T13:07:07.768Z,84.59
2022-08-04T13:09:37.515Z,85.55
2022-08-04T13:12:32.355Z,86.09
2022-08-04T13:15:10.933Z,84.42
2022-08-04T13:18:00.332Z,84.15
2022-08-04T13:20:32.742Z,84.13
2022-08-04T13:23:11.602Z,84.91
2022-08-04T13:26:43.615Z,84.82
2022-08-04T13:28:34.437Z,84.57
2022-08-04T13:31:05.751Z,85.41
2022-08-04T13:33:35.971Z,85.31
2022-08-04T13:36:05.354Z,84.49
2022-08-04T13:38:33.859Z,84.83
2022-08-04T13:41:04.548Z,85.71
2022-08-04T13:44:16.152Z,85.50
2022-08-04T13:46:28.860Z,85.15
2022-08-04T13:49:25.833Z,84.22
2022-08-04T13:51:57.350Z,83.36
2022-08-04T13:54:35.134Z,82.84
2022-08-04T13:57:44.280Z,82.30
2022-08-04T14:00:12.080Z,82.56
2022-08-04T14:02:44.411Z,81.77
2022-08-04T14:05:19.064Z,81.70
2022-08-04T14:07:50.806Z,81.19
2022-08-04T14:10:17.979Z,80.99
2022-08-04T14:12:47.206Z,79.70
2022-08-04T14:16:01.432Z,79.60
2022-08-04T14:18:23.634Z,79.79
2022-08-04T14:21:01.798Z,79.63
2022-08-04T14:23:33.334Z,79.96
2022-08-04T14:26:00.325Z,80.08
2022-08-04T14:29:08.603Z,79.72
2022-08-04T14:31:21.678Z,79.65
2022-08-04T14:34:01.877Z,80.30
2022-08-04T14:37:04.674Z,80.86
2022-08-04T14:40:17.919Z,80.11
2022-08-04T14:42:55.430Z,79.66
2022-08-04T14:45:54.663Z,80.27
2022-08-04T14:48:22.499Z,79.63
2022-08-04T14:50:51.147Z,80.01
2022-08-04T14:53:21.816Z,79.54
2022-08-04T14:55:51.549Z,79.85
2022-08-04T14:58:35.055Z,79.96
2022-08-04T15:01:11.792Z,79.97
2022-08-04T15:03:51.731Z,80.17
2022-08-04T15:06:26.508Z,80.79
2022-08-04T15:08:56.369Z,81.52
2022-08-04T15:11:24.709Z,82.17
2022-08-04T15:13:53.198Z,82.61
2022-08-04T15:16:21.626Z,83.19
2022-08-04T15:18:49.449Z,83.34
2022-08-04T15:21:17.205Z,83.95
2022-08-04T15:23:44.299Z,83.69
2022-08-04T15:26:22.044Z,83.16
2022-08-04T15:29:02.055Z,82.67
2022-08-04T15:32:03.853Z,82.85
2022-08-04T15:34:23.720Z,82.24
2022-08-04T15:36:56.396Z,82.67
2022-08-04T15:39:44.924Z,82.94
2022-08-04T15:42:21.644Z,83.55
2022-08-04T15:44:51.552Z,83.53
2022-08-04T15:47:18.700Z,83.29
2022-08-04T15:49:47.112Z,83.20
2022-08-04T15:52:16.803Z,83.51
2022-08-04T15:54:51.973Z,83.87
2022-08-04T15:58:01.217Z,83.40
2022-08-04T16:00:28.556Z,84.03
2022-08-04T16:02:55.980Z,84.37
2022-08-04T16:05:23.482Z,84.34
2022-08-04T16:07:54.707Z,84.63
2022-08-04T16:10:48.608Z,84.63
2022-08-04T16:13:19.689Z,84.76
2022-08-04T16:16:03.138Z,84.57
2022-08-04T16:18:30.325Z,84.35
2022-08-04T16:21:03.912Z,83.95
2022-08-04T16:24:05.915Z,83.80
2022-08-04T16:26:36.565Z,83.33
2022-08-04T16:29:32.538Z,83.04
2022-08-04T16:32:05.889Z,83.01
2022-08-04T16:34:49.188Z,83.32
2022-08-04T16:37:19.243Z,82.97
2022-08-04T16:39:51.314Z,82.38
2022-08-04T16:42:28.041Z,82.58
2022-08-04T16:45:06.877Z,82.81
2022-08-04T16:47:49.217Z,82.53
2022-08-04T16:50:15.947Z,82.26
2022-08-04T16:52:44.969Z,82.19
2022-08-04T16:55:14.302Z,81.89
2022-08-04T16:57:41.425Z,82.08
2022-08-04T17:00:09.342Z,82.49
2022-08-04T17:02:36.266Z,82.31
2022-08-04T17:05:39.456Z,82.35
2022-08-04T17:10:56.015Z,82.46
2022-08-04T17:14:02.784Z,82.35
2022-08-04T17:16:29.516Z,82.43
2022-08-04T17:18:57.794Z,82.66
2022-08-04T17:21:33.180Z,83.04
2022-08-04T17:24:15.111Z,83.21
2022-08-04T17:26:45.538Z,83.46
2022-08-04T17:29:43.234Z,83.57
2022-08-04T17:32:21.541Z,84.01
2022-08-04T17:34:50.775Z,84.35
2022-08-04T17:37:38.932Z,84.47
2022-08-04T17:40:11.075Z,84.72
2022-08-04T17:42:39.900Z,84.95
2022-08-04T17:48:09.369Z,85.40
2022-08-04T17:50:36.721Z,85.41
2022-08-04T17:53:12.018Z,85.66
2022-08-04T17:55:49.621Z,85.75
2022-08-04T17:58:23.152Z,86.02
2022-08-04T18:01:23.210Z,86.22
2022-08-04T18:03:52.898Z,86.36
2022-08-04T18:06:22.373Z,86.61
2022-08-04T18:08:57.755Z,86.83
2022-08-04T18:11:29.810Z,87.25
2022-08-04T18:14:09.196Z,87.10
2022-08-04T18:16:45.630Z,87.48
2022-08-04T18:19:15.389Z,87.74
2022-08-04T18:21:46.494Z,88.02
2022-08-04T18:24:35.291Z,88.33
2022-08-04T18:27:17.486Z,88.48
2022-08-04T18:30:15.340Z,88.71
2022-08-04T18:32:33.790Z,88.87
2022-08-04T18:35:05.697Z,88.96
2022-08-04T18:38:06.624Z,89.30
2022-08-04T18:43:14.667Z,89.41
2022-08-04T18:45:42.147Z,89.52
2022-08-04T18:48:18.294Z,89.67
2022-08-04T18:51:10.182Z,89.86
2022-08-04T18:53:34.826Z,89.97
2022-08-04T18:56:06.108Z,89.95
2022-08-04T18:58:43.043Z,90.13
2022-08-04T19:01:14.015Z,90.22
2022-08-04T19:03:44.193Z,90.34
2022-08-04T19:06:13.857Z,90.40
2022-08-04T19:08:45.171Z,90.53
2022-08-04T19:11:37.204Z,90.77
2022-08-04T19:14:02.213Z,91.01
2022-08-04T19:16:31.019Z,91.34
2022-08-04T19:19:00.473Z,91.59
2022-08-04T19:22:01.498Z,91.66
2022-08-04T19:24:33.486Z,91.90
2022-08-04T19:27:06.813Z,92.16
2022-08-04T19:29:41.016Z,92.40
2022-08-04T19:32:14.734Z,92.42
2022-08-04T19:34:47.304Z,92.73
2022-08-04T19:37:56.158Z,93.06
2022-08-04T19:40:04.594Z,92.35
2022-08-04T19:42:31.913Z,92.86
2022-08-04T19:44:58.665Z,92.77
2022-08-04T19:48:15.848Z,92.67
2022-08-04T19:50:14.069Z,92.65
2022-08-04T19:52:51.453Z,92.34
2022-08-04T19:55:22.358Z,92.07
2022-08-04T19:57:50.433Z,91.56
2022-08-04T20:00:33.888Z,91.50
2022-08-04T20:03:02.998Z,91.55
2022-08-04T20:05:52.630Z,91.18
2022-08-04T20:08:17.501Z,91.15
2022-08-04T20:10:51.524Z,90.98
2022-08-04T20:13:20.887Z,90.60
2022-08-04T20:15:55.438Z,90.11
2022-08-04T20:18:36.397Z,90.25
2022-08-04T20:21:19.366Z,90.15
2022-08-04T20:23:52.773Z,90.13
2022-08-04T20:26:20.147Z,90.52
2022-08-04T20:28:51.803Z,90.44
2022-08-04T20:31:19.876Z,90.53
2022-08-04T20:33:53.801Z,90.72
2022-08-04T20:36:22.759Z,90.68
2022-08-04T20:38:52.951Z,90.79
2022-08-04T20:41:21.653Z,91.18
2022-08-04T20:43:49.654Z,91.23
2022-08-04T20:46:29.691Z,91.02
2022-08-04T20:48:58.405Z,91.39
2022-08-04T20:51:31.782Z,91.39
2022-08-04T20:54:02.200Z,91.52
2022-08-04T20:56:31.239Z,91.26
2022-08-04T20:59:01.299Z,90.87
2022-08-04T21:01:35.156Z,91.32
2022-08-04T21:04:27.780Z,91.42
2022-08-04T21:06:57.797Z,91.23
2022-08-04T21:09:37.449Z,91.12
2022-08-04T21:12:10.689Z,91.28
2022-08-04T21:14:53.906Z,91.35
2022-08-04T21:17:21.434Z,91.05
2022-08-04T21:20:12.713Z,90.71
2022-08-04T21:22:40.570Z,90.37
2022-08-04T21:25:15.742Z,90.34
2022-08-04T21:27:44.371Z,89.98
2022-08-04T21:30:24.026Z,89.98
2022-08-04T21:32:55.440Z,89.91
2022-08-04T21:35:37.022Z,89.72
2022-08-04T21:38:13.993Z,90.02
2022-08-04T21:40:54.711Z,90.07
2022-08-04T21:43:23.467Z,90.38
2022-08-04T21:45:55.736Z,90.24
2022-08-04T21:48:27.611Z,90.38
2022-08-04T21:50:55.327Z,90.62
2022-08-04T21:53:22.646Z,90.71
2022-08-04T21:56:05.638Z,90.62
2022-08-04T21:58:37.340Z,90.92
2022-08-04T22:01:05.945Z,90.97
2022-08-04T22:03:52.644Z,91.23
2022-08-04T22:06:28.195Z,91.24
2022-08-04T22:08:57.557Z,91.20
2022-08-04T22:11:44.240Z,91.21
2022-08-04T22:14:16.590Z,91.14
2022-08-04T22:16:45.308Z,91.35
2022-08-04T22:19:13.678Z,91.30
2022-08-04T22:21:46.682Z,91.36
2022-08-04T22:24:14.416Z,91.61
2022-08-04T22:26:41.680Z,91.76
2022-08-04T22:29:14.417Z,92.20
2022-08-04T22:31:53.260Z,92.30
2022-08-04T22:34:24.286Z,92.05
2022-08-04T22:36:52.591Z,92.13
2022-08-04T22:39:23.449Z,92.06
2022-08-04T22:42:04.119Z,92.20
2022-08-04T22:44:33.253Z,92.12
2022-08-04T22:47:01.221Z,92.41
2022-08-04T22:49:31.483Z,92.56
2022-08-04T22:51:59.157Z,92.75
2022-08-04T22:54:28.465Z,92.83
2022-08-04T22:56:56.855Z,92.83
2022-08-04T22:59:24.132Z,92.89
2022-08-04T23:02:00.312Z,93.07
2022-08-04T23:04:33.076Z,93.11
2022-08-04T23:07:08.947Z,93.32
2022-08-04T23:09:49.193Z,93.41
2022-08-04T23:12:27.022Z,93.64
2022-08-04T23:14:58.589Z,93.12
2022-08-04T23:17:27.348Z,93.55
2022-08-04T23:19:58.161Z,94.00
2022-08-04T23:22:41.034Z,94.32
2022-08-04T23:25:16.338Z,94.55
2022-08-04T23:27:48.104Z,94.83
2022-08-04T23:30:19.508Z,95.05
2022-08-04T23:32:46.516Z,94.97
2022-08-04T23:35:14.983Z,95.01
2022-08-04T23:37:57.323Z,95.11
2022-08-04T23:40:33.591Z,95.00
2022-08-04T23:43:17.182Z,94.91
2022-08-04T23:46:07.427Z,94.88
2022-08-04T23:48:36.869Z,94.88
2022-08-04T23:51:13.635Z,94.73
2022-08-04T23:54:02.556Z,94.76
2022-08-04T23:56:28.667Z,94.75
2022-08-04T23:58:56.362Z,94.90
